createdAt,value
2023-02-27T00:00:15.262Z,19.50
2023-02-27T00:03:04.007Z,14.00
2023-02-27T00:05:32.696Z,17.30
2023-02-27T00:08:01.279Z,12.80
2023-02-27T00:10:29.877Z,14.20
2023-02-27T00:12:58.576Z,15.40
2023-02-27T00:15:27.244Z,12.40
2023-02-27T00:17:56.755Z,14.30
2023-02-27T00:20:26.442Z,14.30
2023-02-27T00:22:55.075Z,11.70
2023-02-27T00:25:23.610Z,11.30
2023-02-27T00:27:54.376Z,14.00
2023-02-27T00:30:22.942Z,13.40
2023-02-27T00:32:51.747Z,11.40
2023-02-27T00:35:21.137Z,11.70
2023-02-27T00:37:50.253Z,15.30
2023-02-27T00:40:19.953Z,13.30
2023-02-27T00:42:49.953Z,13.30
2023-02-27T00:45:20.188Z,12.80
2023-02-27T00:47:49.583Z,12.80
2023-02-27T00:50:18.762Z,13.80
2023-02-27T00:52:47.484Z,12.30
2023-02-27T00:55:16.437Z,11.40
2023-02-27T00:57:45.078Z,14.00
2023-02-27T01:00:15.292Z,15.20
2023-02-27T01:02:43.873Z,10.90
2023-02-27T01:05:13.235Z,9.60
2023-02-27T01:07:41.934Z,9.90
2023-02-27T01:10:12.594Z,10.10
2023-02-27T01:12:41.788Z,11.10
2023-02-27T01:15:12.640Z,8.70
2023-02-27T01:17:41.277Z,8.90
2023-02-27T01:20:12.740Z,10.70
2023-02-27T01:22:42.240Z,12.10
2023-02-27T01:25:11.184Z,12.50
2023-02-27T01:27:41.230Z,9.30
2023-02-27T01:30:11.869Z,10.00
2023-02-27T01:32:40.584Z,8.80
2023-02-27T01:35:09.857Z,10.30
2023-02-27T01:37:38.321Z,11.90
2023-02-27T01:40:08.686Z,9.30
2023-02-27T01:42:37.381Z,11.30
2023-02-27T01:45:12.578Z,12.80
2023-02-27T01:47:44.750Z,12.10
2023-02-27T01:50:15.137Z,9.80
2023-02-27T01:52:45.014Z,10.50
2023-02-27T01:55:15.019Z,8.20
2023-02-27T01:57:46.876Z,10.80
2023-02-27T02:00:17.624Z,8.50
2023-02-27T02:03:21.595Z,11.10
2023-02-27T02:05:54.996Z,11.40
2023-02-27T02:08:24.319Z,12.20
2023-02-27T02:10:54.322Z,11.80
2023-02-27T02:13:23.101Z,9.90
2023-02-27T02:16:25.083Z,12.00
2023-02-27T02:19:20.268Z,8.80
2023-02-27T02:21:54.582Z,7.80
2023-02-27T02:24:29.000Z,9.80
2023-02-27T02:27:11.215Z,9.80
2023-02-27T02:30:03.456Z,12.80
2023-02-27T02:32:34.994Z,11.60
2023-02-27T02:35:06.781Z,14.20
2023-02-27T02:38:00.538Z,11.70
2023-02-27T02:40:47.022Z,6.60
2023-02-27T02:43:25.644Z,10.30
2023-02-27T02:46:23.599Z,11.30
2023-02-27T02:49:01.950Z,9.10
2023-02-27T02:51:40.973Z,9.30
2023-02-27T02:54:30.614Z,10.10
2023-02-27T02:57:09.354Z,10.40
2023-02-27T02:59:54.334Z,8.80
2023-02-27T03:02:26.831Z,12.00
2023-02-27T03:05:00.718Z,10.70
2023-02-27T03:07:33.886Z,12.30
2023-02-27T03:10:17.879Z,12.50
2023-02-27T03:12:52.384Z,10.40
2023-02-27T03:15:26.293Z,10.00
2023-02-27T03:18:06.220Z,9.50
2023-02-27T03:20:41.865Z,8.30
2023-02-27T03:23:15.826Z,12.30
2023-02-27T03:25:46.636Z,8.60
2023-02-27T03:28:19.278Z,7.20
2023-02-27T03:30:51.966Z,7.90
2023-02-27T03:33:33.832Z,8.70
2023-02-27T03:36:27.788Z,8.20
2023-02-27T03:39:27.475Z,7.10
2023-02-27T03:42:07.711Z,8.80
2023-02-27T03:45:00.153Z,8.20
2023-02-27T03:47:29.669Z,8.50
2023-02-27T03:49:58.637Z,10.40
2023-02-27T03:52:28.785Z,9.40
2023-02-27T03:55:01.950Z,8.30
2023-02-27T03:57:31.667Z,8.30
2023-02-27T04:00:00.778Z,7.00
2023-02-27T04:02:30.558Z,7.60
2023-02-27T04:04:59.275Z,9.50
2023-02-27T04:08:19.345Z,8.90
2023-02-27T04:11:04.107Z,6.10
2023-02-27T04:13:38.473Z,10.70
2023-02-27T04:16:35.468Z,9.00
2023-02-27T04:19:25.980Z,14.70
2023-02-27T04:22:11.546Z,10.30
2023-02-27T04:24:58.764Z,9.70
2023-02-27T04:27:36.439Z,8.40
2023-02-27T04:30:29.920Z,7.50
2023-02-27T04:33:07.779Z,8.40
2023-02-27T04:35:44.026Z,10.60
2023-02-27T04:38:28.575Z,11.00
2023-02-27T04:41:04.642Z,9.40
2023-02-27T04:43:35.019Z,11.20
2023-02-27T04:46:05.482Z,8.40
2023-02-27T04:48:38.089Z,7.50
2023-02-27T04:51:11.504Z,8.30
2023-02-27T04:53:57.565Z,9.70
2023-02-27T04:56:38.238Z,7.90
2023-02-27T04:59:15.641Z,9.80
2023-02-27T05:01:48.675Z,9.00
2023-02-27T05:04:20.483Z,8.60
2023-02-27T05:06:50.238Z,7.10
2023-02-27T05:09:40.442Z,14.00
2023-02-27T05:12:26.554Z,8.70
2023-02-27T05:15:37.059Z,8.40
2023-02-27T05:18:09.474Z,9.00
2023-02-27T05:21:37.552Z,11.60
2023-02-27T05:24:12.169Z,7.40
2023-02-27T05:27:27.972Z,8.00
2023-02-27T05:30:15.888Z,11.60
2023-02-27T05:33:05.271Z,8.40
2023-02-27T05:35:56.726Z,12.60
2023-02-27T05:38:34.270Z,8.60
2023-02-27T05:41:14.693Z,10.10
2023-02-27T05:43:47.677Z,12.30
2023-02-27T05:46:22.894Z,12.60
2023-02-27T05:48:55.450Z,5.70
2023-02-27T05:51:26.282Z,9.20
2023-02-27T05:54:02.452Z,9.00
2023-02-27T05:56:34.188Z,10.40
2023-02-27T05:59:24.730Z,9.50
2023-02-27T06:01:53.405Z,8.20
2023-02-27T06:04:22.188Z,8.80
2023-02-27T06:06:51.050Z,6.80
2023-02-27T06:09:20.972Z,9.70
2023-02-27T06:11:49.441Z,8.90
2023-02-27T06:14:18.033Z,9.10
2023-02-27T06:16:46.933Z,6.70
2023-02-27T06:19:15.715Z,7.90
2023-02-27T06:21:44.398Z,11.80
2023-02-27T06:24:13.290Z,9.00
2023-02-27T06:26:41.858Z,8.90
2023-02-27T06:29:10.752Z,10.00
2023-02-27T06:31:39.438Z,7.30
2023-02-27T06:34:08.429Z,10.10
2023-02-27T06:36:37.312Z,9.80
2023-02-27T06:39:06.630Z,7.90
2023-02-27T06:41:35.211Z,8.50
2023-02-27T06:44:03.991Z,8.20
2023-02-27T06:46:32.631Z,8.80
2023-02-27T06:49:01.359Z,8.80
2023-02-27T06:51:30.050Z,7.00
2023-02-27T06:53:58.624Z,9.40
2023-02-27T06:56:27.500Z,9.10
2023-02-27T06:58:57.609Z,8.10
2023-02-27T07:01:28.105Z,7.80
2023-02-27T07:03:57.155Z,5.90
2023-02-27T07:07:30.974Z,9.80
2023-02-27T07:09:14.284Z,6.10
2023-02-27T07:11:42.871Z,10.30
2023-02-27T07:14:12.781Z,10.30
2023-02-27T07:16:42.592Z,9.60
2023-02-27T07:19:11.283Z,8.80
2023-02-27T07:21:40.490Z,9.10
2023-02-27T07:24:09.773Z,9.40
2023-02-27T07:26:38.364Z,10.50
2023-02-27T07:29:07.464Z,9.20
2023-02-27T07:31:36.690Z,8.50
2023-02-27T07:34:05.245Z,9.30
2023-02-27T07:36:34.632Z,9.00
2023-02-27T07:39:04.048Z,10.90
2023-02-27T07:41:33.750Z,7.10
2023-02-27T07:44:02.547Z,8.80
2023-02-27T07:46:31.435Z,11.30
2023-02-27T07:49:00.439Z,12.10
2023-02-27T07:51:29.823Z,9.80
2023-02-27T07:53:58.928Z,9.30
2023-02-27T07:56:27.989Z,7.80
2023-02-27T07:58:57.230Z,6.30
2023-02-27T08:01:26.320Z,10.50
2023-02-27T08:03:56.724Z,11.50
2023-02-27T08:06:25.758Z,9.50
2023-02-27T08:08:54.777Z,9.30
2023-02-27T08:11:23.709Z,11.30
2023-02-27T08:14:01.305Z,5.60
2023-02-27T08:16:32.101Z,11.70
2023-02-27T08:19:01.486Z,9.80
2023-02-27T08:21:31.049Z,10.50
2023-02-27T08:23:59.942Z,6.90
2023-02-27T08:26:29.094Z,11.10
2023-02-27T08:28:58.019Z,9.00
2023-02-27T08:31:26.838Z,9.00
2023-02-27T08:34:04.476Z,9.20
2023-02-27T08:36:38.734Z,10.30
2023-02-27T08:39:08.330Z,8.80
2023-02-27T08:41:37.026Z,6.90
2023-02-27T08:44:06.205Z,8.20
2023-02-27T08:46:34.909Z,9.00
2023-02-27T08:49:03.788Z,9.70
2023-02-27T08:51:32.572Z,8.30
2023-02-27T08:54:01.780Z,6.90
2023-02-27T08:56:30.763Z,9.60
2023-02-27T08:58:59.378Z,9.10
2023-02-27T09:01:33.460Z,7.90
2023-02-27T09:04:03.877Z,8.10
2023-02-27T09:06:34.388Z,9.90
2023-02-27T09:09:04.240Z,11.00
2023-02-27T09:11:33.327Z,9.40
2023-02-27T09:14:01.799Z,10.60
2023-02-27T09:16:30.973Z,7.70
2023-02-27T09:18:59.889Z,9.10
2023-02-27T09:21:30.224Z,8.50
2023-02-27T09:24:02.533Z,9.50
2023-02-27T09:26:45.166Z,10.10
2023-02-27T09:29:15.218Z,8.50
2023-02-27T09:31:44.025Z,8.90
2023-02-27T09:34:12.885Z,6.80
2023-02-27T09:36:42.312Z,8.10
2023-02-27T09:39:11.285Z,10.20
2023-02-27T09:41:57.286Z,8.10
2023-02-27T09:44:46.970Z,7.90
2023-02-27T09:47:22.120Z,7.30
2023-02-27T09:50:02.457Z,6.30
2023-02-27T09:52:33.177Z,6.20
2023-02-27T09:55:02.295Z,6.70
2023-02-27T09:57:55.226Z,7.10
2023-02-27T10:00:41.258Z,8.40
2023-02-27T10:03:23.264Z,8.20
2023-02-27T10:06:01.033Z,8.30
2023-02-27T10:08:29.706Z,9.90
2023-02-27T10:11:08.207Z,6.90
2023-02-27T10:13:58.201Z,11.80
2023-02-27T10:16:29.236Z,9.40
2023-02-27T10:19:01.883Z,7.90
2023-02-27T10:21:49.457Z,7.60
2023-02-27T10:24:37.902Z,7.10
2023-02-27T10:27:08.732Z,8.40
2023-02-27T10:29:42.034Z,8.70
2023-02-27T10:32:22.960Z,9.60
2023-02-27T10:34:59.594Z,6.40
2023-02-27T10:37:28.752Z,13.10
2023-02-27T10:40:00.302Z,7.50
2023-02-27T10:42:33.845Z,7.90
2023-02-27T10:45:04.146Z,6.40
2023-02-27T10:47:33.146Z,8.00
2023-02-27T10:50:01.866Z,10.90
2023-02-27T10:52:31.627Z,8.80
2023-02-27T10:55:18.435Z,9.20
2023-02-27T10:57:47.128Z,9.80
2023-02-27T11:00:33.831Z,8.70
2023-02-27T11:03:02.725Z,9.90
2023-02-27T11:05:36.544Z,6.30
2023-02-27T11:08:22.941Z,7.60
2023-02-27T11:11:11.586Z,8.40
2023-02-27T11:13:42.683Z,8.20
2023-02-27T11:16:17.280Z,9.90
2023-02-27T11:18:47.961Z,6.50
2023-02-27T11:21:29.282Z,9.60
2023-02-27T11:24:01.226Z,8.20
2023-02-27T11:26:33.741Z,8.90
2023-02-27T11:29:15.493Z,8.10
2023-02-27T11:32:06.619Z,6.40
2023-02-27T11:34:38.537Z,7.70
2023-02-27T11:37:33.502Z,8.40
2023-02-27T11:40:13.432Z,9.10
2023-02-27T11:42:50.807Z,5.60
2023-02-27T11:46:13.869Z,5.00
2023-02-27T11:48:39.998Z,7.50
2023-02-27T11:51:37.106Z,6.80
2023-02-27T11:54:38.493Z,9.30
2023-02-27T11:57:30.277Z,6.20
2023-02-27T12:00:21.836Z,6.70
2023-02-27T12:02:59.638Z,9.10
2023-02-27T12:05:50.093Z,11.40
2023-02-27T12:08:30.198Z,7.10
2023-02-27T12:11:13.594Z,9.90
2023-02-27T12:13:47.554Z,7.80
2023-02-27T12:16:42.712Z,8.30
2023-02-27T12:19:32.284Z,7.70
2023-02-27T12:22:06.885Z,7.50
2023-02-27T12:25:07.293Z,6.50
2023-02-27T12:27:44.446Z,4.90
2023-02-27T12:30:22.984Z,7.10
2023-02-27T12:33:01.592Z,4.90
2023-02-27T12:35:33.436Z,8.90
2023-02-27T12:38:02.561Z,5.50
2023-02-27T12:40:34.185Z,5.90
2023-02-27T12:43:32.472Z,7.90
2023-02-27T12:46:32.273Z,6.90
2023-02-27T12:49:37.253Z,7.20
2023-02-27T12:52:07.332Z,6.30
2023-02-27T12:54:54.763Z,6.60
2023-02-27T12:57:57.646Z,7.80
2023-02-27T13:00:30.034Z,10.70
2023-02-27T13:03:06.074Z,7.50
2023-02-27T13:05:53.490Z,8.30
2023-02-27T13:08:52.939Z,9.00
2023-02-27T13:11:46.796Z,6.50
2023-02-27T13:14:27.556Z,8.50
2023-02-27T13:17:13.546Z,7.60
2023-02-27T13:19:53.404Z,10.10
2023-02-27T13:22:53.624Z,9.30
2023-02-27T13:25:24.067Z,9.40
2023-02-27T13:28:00.622Z,8.00
2023-02-27T13:30:29.203Z,8.80
2023-02-27T13:33:07.007Z,7.30
2023-02-27T13:35:57.219Z,5.40
2023-02-27T13:38:45.234Z,5.90
2023-02-27T13:41:29.373Z,13.30
2023-02-27T13:44:00.307Z,9.70
2023-02-27T13:46:34.050Z,13.00
2023-02-27T13:49:06.651Z,11.70
2023-02-27T13:51:35.922Z,16.30
2023-02-27T13:54:14.239Z,13.50
2023-02-27T13:56:58.742Z,9.80
2023-02-27T13:59:45.190Z,7.50
2023-02-27T14:02:56.778Z,7.70
2023-02-27T14:05:36.539Z,8.10
2023-02-27T14:08:19.426Z,8.60
2023-02-27T14:11:13.492Z,9.80
2023-02-27T14:13:52.312Z,10.40
2023-02-27T14:16:50.517Z,7.20
2023-02-27T14:19:21.599Z,9.40
2023-02-27T14:22:19.911Z,8.40
2023-02-27T14:25:02.420Z,12.10
2023-02-27T14:27:49.447Z,9.80
2023-02-27T14:30:31.653Z,11.50
2023-02-27T14:33:11.208Z,8.80
2023-02-27T14:35:40.111Z,9.10
2023-02-27T14:38:11.014Z,10.00
2023-02-27T14:41:01.302Z,11.70
2023-02-27T14:43:44.069Z,12.30
2023-02-27T14:46:27.579Z,11.60
2023-02-27T14:49:08.827Z,9.30
2023-02-27T14:51:38.131Z,11.20
2023-02-27T14:54:12.674Z,9.70
2023-02-27T14:56:54.462Z,10.10
2023-02-27T14:59:25.754Z,10.90
2023-02-27T15:01:56.559Z,10.00
2023-02-27T15:04:29.078Z,9.40
2023-02-27T15:06:59.077Z,8.40
2023-02-27T15:09:43.326Z,7.70
2023-02-27T15:12:20.885Z,9.70
2023-02-27T15:14:55.961Z,10.20
2023-02-27T15:17:27.657Z,11.00
2023-02-27T15:19:58.935Z,10.70
2023-02-27T15:22:38.905Z,10.20
2023-02-27T15:25:32.169Z,8.10
2023-02-27T15:28:08.482Z,9.70
2023-02-27T15:30:37.264Z,8.00
2023-02-27T15:33:13.633Z,7.80
2023-02-27T15:35:44.313Z,8.10
2023-02-27T15:38:33.949Z,9.90
2023-02-27T15:41:03.863Z,8.90
2023-02-27T15:43:34.229Z,8.70
2023-02-27T15:46:02.973Z,8.80
2023-02-27T15:48:32.573Z,11.50
2023-02-27T15:51:03.833Z,8.10
2023-02-27T15:53:34.390Z,9.70
2023-02-27T15:56:06.990Z,9.50
2023-02-27T15:58:38.945Z,13.50
2023-02-27T16:01:13.859Z,8.60
2023-02-27T16:03:52.320Z,10.40
2023-02-27T16:06:29.912Z,10.50
2023-02-27T16:09:29.026Z,8.90
2023-02-27T16:12:28.251Z,10.70
2023-02-27T16:15:28.072Z,10.70
2023-02-27T16:18:07.319Z,9.20
2023-02-27T16:21:01.842Z,9.80
2023-02-27T16:23:35.550Z,9.40
2023-02-27T16:26:37.437Z,9.70
2023-02-27T16:29:24.448Z,9.90
2023-02-27T16:31:55.924Z,9.80
2023-02-27T16:34:45.033Z,9.80
2023-02-27T16:37:21.105Z,8.40
2023-02-27T16:39:52.414Z,10.90
2023-02-27T16:42:22.089Z,9.60
2023-02-27T16:44:53.112Z,12.00
2023-02-27T16:47:23.433Z,9.20
2023-02-27T16:49:54.113Z,9.10
2023-02-27T16:52:23.465Z,11.40
2023-02-27T16:54:53.688Z,12.70
2023-02-27T16:57:28.081Z,12.80
2023-02-27T16:59:58.037Z,13.50
2023-02-27T17:02:27.326Z,11.90
2023-02-27T17:04:58.249Z,10.00
2023-02-27T17:07:27.989Z,9.40
2023-02-27T17:09:57.603Z,10.60
2023-02-27T17:12:27.587Z,12.90
2023-02-27T17:14:58.748Z,10.50
2023-02-27T17:17:28.965Z,11.10
2023-02-27T17:19:59.072Z,9.40
2023-02-27T17:22:29.834Z,10.10
2023-02-27T17:25:00.288Z,10.40
2023-02-27T17:27:30.464Z,11.30
2023-02-27T17:30:00.168Z,9.20
2023-02-27T17:32:30.099Z,11.10
2023-02-27T17:34:59.805Z,11.10
2023-02-27T17:37:30.440Z,13.00
2023-02-27T17:40:00.709Z,13.20
2023-02-27T17:42:36.905Z,11.40
2023-02-27T17:45:11.035Z,11.90
2023-02-27T17:47:47.511Z,12.70
2023-02-27T17:50:23.195Z,14.10
2023-02-27T17:52:55.672Z,14.20
2023-02-27T17:55:25.472Z,14.80
2023-02-27T17:57:55.903Z,13.70
2023-02-27T18:00:26.686Z,16.90
2023-02-27T18:02:57.601Z,18.60
2023-02-27T18:05:28.188Z,16.60
2023-02-27T18:07:58.454Z,20.90
2023-02-27T18:10:34.653Z,20.10
2023-02-27T18:13:06.769Z,21.60
2023-02-27T18:15:38.113Z,20.40
2023-02-27T18:18:08.305Z,21.90
2023-02-27T18:20:39.726Z,23.00
2023-02-27T18:23:10.725Z,24.60
2023-02-27T18:25:42.463Z,26.10
2023-02-27T18:28:13.751Z,22.70
2023-02-27T18:30:46.076Z,23.80
2023-02-27T18:33:16.425Z,29.40
2023-02-27T18:35:51.603Z,25.00
2023-02-27T18:38:26.203Z,28.00
2023-02-27T18:41:07.447Z,23.70
2023-02-27T18:43:40.206Z,25.30
2023-02-27T18:46:13.738Z,18.50
2023-02-27T18:48:46.624Z,17.30
2023-02-27T18:51:18.369Z,18.90
2023-02-27T18:53:53.571Z,14.50
2023-02-27T18:56:26.692Z,19.00
2023-02-27T18:59:03.609Z,15.60
2023-02-27T19:01:38.598Z,17.90
2023-02-27T19:04:12.481Z,18.50
2023-02-27T19:06:44.142Z,17.10
2023-02-27T19:09:20.419Z,18.10
2023-02-27T19:11:53.298Z,17.40
2023-02-27T19:14:29.290Z,14.20
2023-02-27T19:17:02.679Z,18.40
2023-02-27T19:19:33.845Z,18.70
2023-02-27T19:22:03.885Z,16.40
2023-02-27T19:24:35.478Z,19.50
2023-02-27T19:27:05.972Z,18.70
2023-02-27T19:29:43.557Z,20.20
2023-02-27T19:32:15.854Z,19.30
2023-02-27T19:34:46.212Z,24.60
2023-02-27T19:37:18.389Z,25.00
2023-02-27T19:39:49.272Z,23.30
2023-02-27T19:42:20.407Z,26.30
2023-02-27T19:44:51.092Z,32.80
2023-02-27T19:47:24.740Z,31.00
2023-02-27T19:49:55.464Z,28.40
2023-02-27T19:52:27.352Z,26.00
2023-02-27T19:54:58.155Z,33.10
2023-02-27T19:57:29.322Z,48.50
2023-02-27T20:00:00.993Z,43.60
2023-02-27T20:02:31.953Z,38.60
2023-02-27T20:05:04.203Z,39.40
2023-02-27T20:07:34.088Z,32.50
2023-02-27T20:10:06.641Z,29.10
2023-02-27T20:12:40.140Z,37.10
2023-02-27T20:15:12.556Z,43.70
2023-02-27T20:17:45.824Z,36.00
2023-02-27T20:20:16.359Z,36.00
2023-02-27T20:22:47.003Z,34.70
2023-02-27T20:25:18.987Z,39.70
2023-02-27T20:27:52.816Z,38.30
2023-02-27T20:30:27.745Z,35.20
2023-02-27T20:32:59.160Z,38.60
2023-02-27T20:35:29.988Z,39.90
2023-02-27T20:38:00.664Z,35.00
2023-02-27T20:40:34.452Z,69.40
2023-02-27T20:43:06.124Z,39.60
2023-02-27T20:45:42.051Z,45.60
2023-02-27T20:48:17.763Z,40.80
2023-02-27T20:50:50.298Z,40.60
2023-02-27T20:53:26.294Z,44.00
2023-02-27T20:55:57.067Z,38.90
2023-02-27T20:58:29.312Z,47.90
2023-02-27T21:01:00.372Z,47.30
2023-02-27T21:03:38.538Z,35.60
2023-02-27T21:06:11.272Z,48.80
2023-02-27T21:08:42.485Z,47.20
2023-02-27T21:11:14.724Z,51.50
2023-02-27T21:13:45.822Z,51.10
2023-02-27T21:16:20.985Z,41.30
2023-02-27T21:18:52.345Z,32.70
2023-02-27T21:21:24.364Z,30.40
2023-02-27T21:23:54.453Z,32.40
2023-02-27T21:26:35.356Z,37.40
2023-02-27T21:29:10.315Z,30.90
2023-02-27T21:31:41.278Z,29.50
2023-02-27T21:34:13.912Z,31.30
2023-02-27T21:36:44.212Z,31.10
2023-02-27T21:39:20.564Z,32.00
2023-02-27T21:41:50.190Z,29.50
2023-02-27T21:44:20.527Z,31.40
2023-02-27T21:46:49.381Z,30.00
2023-02-27T21:49:23.668Z,28.70
2023-02-27T21:51:53.160Z,30.80
2023-02-27T21:54:23.451Z,28.80
2023-02-27T21:56:52.409Z,28.40
2023-02-27T21:59:22.057Z,25.20
2023-02-27T22:01:50.979Z,26.30
2023-02-27T22:04:21.250Z,26.90
2023-02-27T22:06:51.202Z,25.90
2023-02-27T22:09:21.803Z,27.70
2023-02-27T22:11:50.683Z,24.70
2023-02-27T22:14:19.261Z,28.00
2023-02-27T22:16:48.069Z,28.10
2023-02-27T22:19:22.468Z,25.00
2023-02-27T22:21:51.170Z,25.40
2023-02-27T22:24:20.851Z,27.30
2023-02-27T22:26:50.692Z,26.50
2023-02-27T22:29:19.789Z,27.40
2023-02-27T22:31:48.512Z,32.10
2023-02-27T22:34:18.970Z,30.40
2023-02-27T22:36:49.125Z,24.20
2023-02-27T22:39:17.786Z,19.90
2023-02-27T22:41:46.674Z,22.50
2023-02-27T22:44:16.805Z,26.60
2023-02-27T22:46:48.312Z,24.90
2023-02-27T22:49:20.325Z,25.30
2023-02-27T22:51:51.270Z,30.50
2023-02-27T22:54:23.198Z,30.10
2023-02-27T22:56:53.282Z,31.20
2023-02-27T22:59:22.118Z,32.50
2023-02-27T23:01:51.816Z,32.90
2023-02-27T23:04:22.541Z,32.60
2023-02-27T23:06:52.842Z,32.00
2023-02-27T23:09:24.819Z,28.90
2023-02-27T23:11:54.554Z,33.20
2023-02-27T23:14:24.479Z,32.50
2023-02-27T23:16:53.362Z,29.30
2023-02-27T23:19:22.650Z,32.00
2023-02-27T23:21:51.237Z,29.80
2023-02-27T23:24:20.531Z,26.10
2023-02-27T23:26:51.197Z,29.80
2023-02-27T23:29:20.314Z,32.60
2023-02-27T23:31:49.184Z,28.70
2023-02-27T23:34:17.981Z,33.50
2023-02-27T23:36:46.842Z,30.80
2023-02-27T23:39:16.543Z,31.80
2023-02-27T23:41:45.140Z,29.70
2023-02-27T23:44:33.060Z,29.40
2023-02-27T23:47:01.851Z,30.40
2023-02-27T23:49:30.637Z,26.40
2023-02-27T23:51:59.446Z,28.20
2023-02-27T23:54:28.111Z,21.30
2023-02-27T23:56:56.906Z,20.70
2023-02-27T23:59:28.467Z,23.90
